Time;durP1;ratioP1;P1;durP2;ratioP2;P2;SDS_P1;SDS_P2;PMS_P1;PMS_P2;Temp;Humidity;BMP_temperature;BMP_pressure;BME280_temperature;BME280_humidity;BME280_pressure;Samples;Min_cycle;Max_cycle;Signal;HPM_P1;HPM_P2
2022/07/10 00:02:15;;;;;;;3.63;2.07;;;;;;;13.55;98.37;65602.00;5113480;28;20216;-72
2022/07/10 00:04:41;;;;;;;2.07;2.07;;;;;;;13.48;98.89;65584.34;5107981;28;20266;-71
2022/07/10 00:07:08;;;;;;;2.07;2.07;;;;;;;13.53;98.54;65596.63;5111128;28;20220;-71
2022/07/10 00:09:34;;;;;;;2.30;2.20;;;;;;;13.53;98.43;65594.00;5111560;28;20609;-72
2022/07/10 00:12:00;;;;;;;2.50;2.30;;;;;;;13.56;98.35;65599.94;5111804;28;20612;-72
2022/07/10 00:14:27;;;;;;;2.03;1.67;;;;;;;13.58;98.46;65602.19;5111756;28;20321;-72
2022/07/10 00:16:53;;;;;;;2.40;2.40;;;;;;;;;;5115101;28;20746;-72
2022/07/10 00:19:20;;;;;;;3.80;1.53;;;;;;;13.57;98.88;65601.59;5115693;28;20224;-72
2022/07/10 00:21:47;;;;;;;3.77;1.77;;;;;;;13.49;99.17;65590.66;5117841;28;20689;-72
2022/07/10 00:24:13;;;;;;;2.60;2.40;;;;;;;13.48;99.46;65596.81;5117457;28;20721;-72
2022/07/10 00:26:39;;;;;;;2.37;2.17;;;;;;;13.40;100.00;65580.13;5117220;28;20177;-72
2022/07/10 00:29:06;;;;;;;2.83;2.20;;;;;;;13.47;99.70;65587.88;5115749;28;20209;-73
2022/07/10 00:31:32;;;;;;;2.40;2.30;;;;;;;13.51;99.52;65592.34;5116405;28;20220;-72
2022/07/10 00:33:59;;;;;;;3.13;3.03;;;;;;;;;;5117366;28;20212;-73
2022/07/10 00:36:25;;;;;;;2.30;2.20;;;;;;;13.47;100.00;65588.44;5117261;28;20670;-72
2022/07/10 00:38:51;;;;;;;2.57;2.57;;;;;;;13.51;100.00;65594.94;5116575;28;20335;-72
2022/07/10 00:41:18;;;;;;;4.53;2.17;;;;;;;13.51;100.00;65597.00;5116168;28;20618;-72
2022/07/10 00:43:59;;;;;;;2.47;2.37;;;;;;;13.54;100.00;65603.50;5115893;28;20209;-72
2022/07/10 00:46:27;;;;;;;2.70;2.50;;;;;;;13.63;99.61;65605.09;5116268;28;20228;-71
2022/07/10 00:48:54;;;;;;;2.60;2.40;;;;;;;;;;5097605;28;20224;-71
2022/07/10 00:51:24;;;;;;;4.90;2.10;;;;;;;13.55;100.00;65598.84;5114367;28;20190;-72
2022/07/10 00:53:51;;;;;;;6.43;2.37;;;;;;;13.49;100.00;65592.72;5115706;28;20239;-72
2022/07/10 00:56:21;;;;;;;6.30;2.80;;;;;;;13.52;100.00;65596.06;5116066;28;20280;-71
2022/07/10 00:58:49;;;;;;;4.10;2.70;;;;;;;13.59;100.00;65603.28;5115825;28;20208;-71
2022/07/10 01:01:16;;;;;;;1.83;1.83;;;;;;;13.56;100.00;65600.50;5115807;28;20646;-71
2022/07/10 01:03:45;;;;;;;2.50;2.40;;;;;;;13.53;100.00;65596.63;5116456;28;20212;-71
2022/07/10 01:06:13;;;;;;;4.53;2.83;;;;;;;13.50;100.00;65593.81;5114683;28;20224;-71
2022/07/10 01:08:39;;;;;;;13.53;3.70;;;;;;;13.43;100.00;65589.22;5101188;28;20209;-71
2022/07/10 01:11:08;;;;;;;3.13;2.83;;;;;;;;;;5116158;28;20216;-72
2022/07/10 01:13:36;;;;;;;2.07;2.07;;;;;;;13.45;100.00;65590.88;5116404;28;20299;-72
2022/07/10 01:16:03;;;;;;;2.23;2.13;;;;;;;;;;5116826;28;20651;-72
2022/07/10 01:18:29;;;;;;;2.00;1.90;;;;;;;13.49;100.00;65590.09;5112864;28;20288;-72
2022/07/10 01:20:56;;;;;;;5.30;2.33;;;;;;;13.51;100.00;65594.41;5114582;28;20193;-72
2022/07/10 01:23:23;;;;;;;2.07;2.03;;;;;;;13.53;100.00;65594.00;5114371;28;20262;-72
2022/07/10 01:25:50;;;;;;;2.23;2.10;;;;;;;13.60;100.00;65604.41;5116087;28;20181;-72
2022/07/10 01:28:17;;;;;;;2.30;1.73;;;;;;;13.55;100.00;65596.78;5114196;28;20676;-71
2022/07/10 01:30:44;;;;;;;4.77;2.47;;;;;;;13.49;100.00;65598.47;5115829;28;20608;-72
2022/07/10 01:33:10;;;;;;;2.73;2.63;;;;;;;;;;5115213;28;20216;-72
2022/07/10 01:35:36;;;;;;;2.23;2.13;;;;;;;13.52;100.00;65595.50;5115889;28;20195;-72
2022/07/10 01:38:03;;;;;;;2.17;2.07;;;;;;;13.54;100.00;65613.94;5115332;28;20201;-73
2022/07/10 01:40:29;;;;;;;2.27;2.17;;;;;;;13.49;100.00;65593.28;5116061;28;20211;-73
2022/07/10 01:42:56;;;;;;;3.60;2.00;;;;;;;13.52;100.00;65609.09;5115943;28;20241;-72
2022/07/10 01:45:23;;;;;;;2.33;2.20;;;;;;;13.57;100.00;65601.03;5114230;28;20552;-71
2022/07/10 01:47:50;;;;;;;2.30;2.30;;;;;;;13.54;100.00;65595.66;5112899;28;20196;-72
2022/07/10 01:50:16;;;;;;;6.33;2.27;;;;;;;13.57;100.00;65603.66;5113867;28;20192;-71
2022/07/10 01:52:42;;;;;;;1.67;1.67;;;;;;;13.43;100.00;65596.47;5113773;28;20236;-72
2022/07/10 01:55:09;;;;;;;2.50;2.13;;;;;;;13.42;100.00;65585.50;5110796;28;20200;-72
2022/07/10 01:57:36;;;;;;;2.33;2.23;;;;;;;13.49;100.00;65590.66;5114272;28;20239;-72
2022/07/10 02:00:03;;;;;;;2.90;2.80;;;;;;;13.45;100.00;65590.88;5114620;28;20203;-72
2022/07/10 02:02:37;;;;;;;8.20;3.13;;;;;;;13.40;100.00;65580.66;5114603;28;20199;-72
2022/07/10 02:05:04;;;;;;;2.17;2.17;;;;;;;13.38;100.00;65578.44;5115354;28;20200;-72
2022/07/10 02:07:31;;;;;;;3.07;2.83;;;;;;;13.40;100.00;65588.50;5114385;28;20643;-72
2022/07/10 02:09:57;;;;;;;2.60;2.40;;;;;;;13.32;100.00;65571.22;5110765;28;20272;-72
2022/07/10 02:12:23;;;;;;;2.47;2.27;;;;;;;13.31;100.00;65573.28;5114306;28;20225;-72
2022/07/10 02:14:50;;;;;;;2.87;2.53;;;;;;;13.20;100.00;65558.44;5115445;28;20215;-73
2022/07/10 02:17:16;;;;;;;2.83;2.63;;;;;;;13.07;100.00;65546.59;5114217;28;20232;-72
2022/07/10 02:19:43;;;;;;;6.17;2.47;;;;;;;13.10;100.00;65552.53;5114061;28;20227;-73
2022/07/10 02:22:09;;;;;;;4.23;3.03;;;;;;;;;;5114181;28;20567;-73
2022/07/10 02:24:35;;;;;;;2.90;2.70;;;;;;;13.09;100.00;65548.81;5113111;28;20251;-72
2022/07/10 02:27:02;;;;;;;2.27;2.20;;;;;;;13.10;100.00;65553.09;5114898;28;20241;-72
2022/07/10 02:29:29;;;;;;;3.27;2.53;;;;;;;13.05;100.00;65547.53;5113853;28;20185;-72
2022/07/10 02:31:55;;;;;;;2.37;2.27;;;;;;;;;;5115066;28;20212;-72
2022/07/10 02:34:21;;;;;;;2.20;2.20;;;;;;;13.06;100.00;65546.03;5113856;28;20689;-72
2022/07/10 02:36:48;;;;;;;3.00;2.77;;;;;;;13.08;100.00;65548.25;5114673;28;20279;-72
2022/07/10 02:39:14;;;;;;;2.37;2.27;;;;;;;;;;5110595;28;20231;-72
2022/07/10 02:41:41;;;;;;;2.47;2.07;;;;;;;12.96;100.00;65532.31;5114888;28;20582;-72
2022/07/10 02:44:07;;;;;;;3.90;2.43;;;;;;;13.03;100.00;65542.16;5114487;28;20268;-72
2022/07/10 02:46:34;;;;;;;3.43;2.00;;;;;;;13.02;100.00;65541.59;5115072;28;20216;-72
2022/07/10 02:49:00;;;;;;;2.60;2.50;;;;;;;;;;5112036;28;20196;-72
2022/07/10 02:51:26;;;;;;;3.47;2.87;;;;;;;;;;5102405;28;20228;-72
2022/07/10 02:53:53;;;;;;;2.37;2.27;;;;;;;;;;5107212;28;20237;-72
2022/07/10 02:56:19;;;;;;;3.23;2.47;;;;;;;13.01;100.00;65537.88;5095514;28;20238;-71
2022/07/10 02:58:45;;;;;;;2.93;2.73;;;;;;;12.97;100.00;65536.03;5113306;28;20200;-72
2022/07/10 03:01:12;;;;;;;2.63;2.07;;;;;;;13.02;100.00;65538.44;5114288;28;20212;-72
2022/07/10 03:03:38;;;;;;;3.60;3.10;;;;;;;13.04;100.00;65543.81;5114149;28;20212;-71
2022/07/10 03:06:05;;;;;;;6.53;2.07;;;;;;;13.09;100.00;65551.44;5114303;28;20223;-71
2022/07/10 03:08:31;;;;;;;2.40;2.30;;;;;;;;;;5113081;28;20242;-71
2022/07/10 03:10:57;;;;;;;4.00;2.53;;;;;;;13.09;100.00;65549.38;5094941;28;20192;-72
2022/07/10 03:13:24;;;;;;;5.53;4.43;;;;;;;13.06;100.00;65545.47;5093766;28;20241;-72
2022/07/10 03:15:53;;;;;;;2.83;2.73;;;;;;;12.91;100.00;65529.94;5093664;28;20272;-72
2022/07/10 03:18:20;;;;;;;3.17;2.60;;;;;;;12.99;100.00;65535.66;5099906;28;20205;-72
2022/07/10 03:20:46;;;;;;;3.03;2.83;;;;;;;12.93;100.00;65532.16;5113411;28;20192;-72
2022/07/10 03:23:13;;;;;;;5.80;2.53;;;;;;;12.93;100.00;65545.19;5113572;28;20220;-72
2022/07/10 03:25:39;;;;;;;2.20;2.10;;;;;;;12.80;100.00;65514.56;5113888;28;20220;-73
2022/07/10 03:28:05;;;;;;;2.83;2.73;;;;;;;12.81;100.00;65529.25;5113362;28;20231;-72
2022/07/10 03:30:32;;;;;;;2.53;2.43;;;;;;;12.77;100.00;65514.38;5113867;28;20215;-72
2022/07/10 03:32:59;;;;;;;2.83;2.83;;;;;;;12.74;100.00;65510.50;5114216;28;20302;-73
2022/07/10 03:35:25;;;;;;;2.37;2.37;;;;;;;12.79;100.00;65521.81;5113392;28;20193;-71
2022/07/10 03:37:52;;;;;;;3.17;2.73;;;;;;;12.71;100.00;65512.91;5111408;28;20236;-72
2022/07/10 03:40:20;;;;;;;2.73;2.20;;;;;;;12.73;100.00;65509.38;5093673;28;20194;-72
2022/07/10 03:42:46;;;;;;;2.83;2.83;;;;;;;12.86;100.00;65545.22;5098540;28;20218;-72
2022/07/10 03:45:13;;;;;;;2.40;2.30;;;;;;;12.72;100.00;65514.03;5113696;28;20208;-72
2022/07/10 03:47:39;;;;;;;2.40;2.30;;;;;;;12.65;100.00;65501.06;5113058;28;20584;-71
2022/07/10 03:50:06;;;;;;;2.80;2.50;;;;;;;12.60;100.00;65498.66;5112128;28;20621;-72
2022/07/10 03:52:32;;;;;;;2.80;2.37;;;;;;;12.66;100.00;65509.97;5117804;28;20242;-72
2022/07/10 03:54:59;;;;;;;2.33;2.30;;;;;;;12.66;100.00;65512.59;5118702;28;20185;-72
2022/07/10 04:00:11;;;;;;;2.47;2.43;;;;;;;12.69;100.00;65510.69;5116625;28;20678;-71
2022/07/10 04:02:38;;;;;;;2.80;2.57;;;;;;;12.67;100.00;65513.69;5116909;28;20189;-72
2022/07/10 04:05:08;;;;;;;2.53;2.47;;;;;;;12.72;100.00;65514.03;5116900;28;20661;-72
2022/07/10 04:07:35;;;;;;;2.80;2.70;;;;;;;12.70;100.00;65508.66;5118201;28;20173;-72
2022/07/10 04:10:03;;;;;;;3.73;2.00;;;;;;;12.73;100.00;65520.38;5115918;28;20185;-72
2022/07/10 04:12:29;;;;;;;5.30;2.53;;;;;;;;;;5117460;28;20233;-72
2022/07/10 04:14:56;;;;;;;5.07;2.53;;;;;;;12.79;100.00;65518.66;5117734;28;20678;-72
2022/07/10 04:17:22;;;;;;;2.50;2.50;;;;;;;12.71;100.00;65504.56;5115826;28;20185;-72
2022/07/10 04:19:48;;;;;;;3.10;3.00;;;;;;;12.69;100.00;65505.50;5112905;28;20193;-70
2022/07/10 04:22:15;;;;;;;2.23;2.13;;;;;;;12.71;100.00;65512.91;5118094;28;20674;-72
2022/07/10 04:24:41;;;;;;;4.00;2.40;;;;;;;12.64;100.00;65502.53;5118034;28;20238;-72
2022/07/10 04:27:07;;;;;;;2.97;2.90;;;;;;;12.64;100.00;65505.72;5116504;28;20208;-71
2022/07/10 04:29:34;;;;;;;2.87;2.63;;;;;;;12.72;100.00;65511.44;5115201;28;20691;-72
2022/07/10 04:32:00;;;;;;;4.60;3.10;;;;;;;12.77;100.00;65514.38;5117187;28;20173;-72
2022/07/10 04:34:27;;;;;;;2.77;2.57;;;;;;;;;;5116494;28;20634;-72
2022/07/10 04:36:53;;;;;;;6.37;2.93;;;;;;;;;;5117290;28;20226;-72
2022/07/10 04:39:19;;;;;;;2.93;2.67;;;;;;;12.75;100.00;65514.22;5116265;28;20682;-72
2022/07/10 04:41:46;;;;;;;2.07;2.07;;;;;;;12.74;100.00;65508.44;5117245;28;20203;-72
2022/07/10 04:44:12;;;;;;;3.20;3.00;;;;;;;;;;5115940;28;20224;-72
2022/07/10 04:46:38;;;;;;;7.17;2.17;;;;;;;12.92;100.00;65533.63;5117175;28;20675;-72
2022/07/10 04:49:05;;;;;;;2.60;2.50;;;;;;;12.91;100.00;65529.38;5115192;28;20194;-72
2022/07/10 04:51:32;;;;;;;5.13;2.80;;;;;;;;;;5115096;28;20700;-72
2022/07/10 04:53:58;;;;;;;2.40;2.20;;;;;;;12.98;100.00;65534.00;5116862;28;20239;-72
2022/07/10 04:56:24;;;;;;;6.63;2.60;;;;;;;12.99;100.00;65543.47;5115015;28;20248;-71
2022/07/10 04:58:51;;;;;;;3.67;2.37;;;;;;;13.05;100.00;65549.56;5116585;28;20239;-72
2022/07/10 05:01:19;;;;;;;4.07;2.37;;;;;;;13.07;100.00;65549.75;5115773;28;20228;-72
2022/07/10 05:03:46;;;;;;;2.50;2.40;;;;;;;13.19;100.00;65570.34;5097995;28;20216;-72
2022/07/10 05:06:12;;;;;;;3.47;3.40;;;;;;;13.24;100.00;65564.94;5115778;28;20577;-72
2022/07/10 05:08:39;;;;;;;2.57;2.47;;;;;;;13.31;100.00;65573.28;5115924;28;20226;-72
2022/07/10 05:11:06;;;;;;;6.23;2.80;;;;;;;13.42;100.00;65598.53;5115710;28;20192;-72
2022/07/10 05:13:32;;;;;;;2.40;2.30;;;;;;;13.49;100.00;65595.31;5116282;28;20702;-72
2022/07/10 05:15:58;;;;;;;2.20;2.20;;;;;;;;;;5116538;28;20271;-72
2022/07/10 05:18:25;;;;;;;1.80;1.80;;;;;;;13.51;100.00;65591.78;5111723;28;20208;-71
2022/07/10 05:20:51;;;;;;;2.57;2.47;;;;;;;13.51;100.00;65591.78;5114638;28;20587;-72
2022/07/10 05:23:17;;;;;;;2.73;2.53;;;;;;;13.51;100.00;65594.94;5114612;28;20255;-72
2022/07/10 05:25:44;;;;;;;2.47;1.90;;;;;;;13.57;100.00;65606.81;5115332;28;20233;-72
2022/07/10 05:28:12;;;;;;;2.43;2.33;;;;;;;13.54;100.00;65608.72;5116103;28;20658;-72
2022/07/10 05:30:39;;;;;;;2.43;2.33;;;;;;;13.59;100.00;65606.44;5114266;28;20200;-72
2022/07/10 05:33:05;;;;;;;4.43;2.90;;;;;;;13.63;100.00;65610.31;5105672;28;20214;-72
2022/07/10 05:35:31;;;;;;;2.47;2.27;;;;;;;;;;5095606;28;20206;-72
2022/07/10 05:37:58;;;;;;;3.63;2.47;;;;;;;13.67;100.00;65614.78;5095450;28;20288;-72
2022/07/10 05:40:24;;;;;;;2.73;2.63;;;;;;;;;;5112498;28;20229;-72
2022/07/10 05:42:51;;;;;;;3.47;3.17;;;;;;;13.76;100.00;65622.16;5115757;28;20247;-72
2022/07/10 05:45:18;;;;;;;4.53;2.70;;;;;;;13.86;100.00;65638.50;5116349;28;20208;-72
2022/07/10 05:47:44;;;;;;;2.63;2.40;;;;;;;13.90;100.00;65635.13;5115709;28;20233;-72
2022/07/10 05:50:11;;;;;;;2.43;2.30;;;;;;;;;;5113111;28;20246;-72
2022/07/10 05:52:37;;;;;;;7.60;2.60;;;;;;;13.93;100.00;65643.69;5114518;28;20239;-72
2022/07/10 05:55:04;;;;;;;2.10;2.00;;;;;;;14.02;100.00;65651.09;5112942;28;20242;-72
2022/07/10 05:57:31;;;;;;;3.83;2.63;;;;;;;14.01;100.00;65654.63;5115547;28;20227;-72
2022/07/10 05:59:57;;;;;;;2.70;2.17;;;;;;;;;;5113835;28;20236;-72
2022/07/10 06:02:24;;;;;;;3.57;2.57;;;;;;;14.25;100.00;65680.75;5115669;28;20193;-72
2022/07/10 06:04:51;;;;;;;2.57;2.40;;;;;;;14.23;100.00;65673.31;5115244;28;20201;-72
2022/07/10 06:07:17;;;;;;;2.50;2.30;;;;;;;;;;5113129;28;20189;-73
2022/07/10 06:09:44;;;;;;;2.30;1.83;;;;;;;14.32;98.74;65680.72;5108769;28;20220;-73
2022/07/10 06:12:10;;;;;;;2.20;1.93;;;;;;;;;;5115216;28;20595;-72
2022/07/10 06:14:36;;;;;;;2.30;1.73;;;;;;;14.09;98.85;65668.19;5111319;28;20630;-72
2022/07/10 06:17:03;;;;;;;2.43;2.23;;;;;;;14.00;97.21;65648.88;5111945;28;20224;-72
2022/07/10 06:19:29;;;;;;;4.60;2.10;;;;;;;14.02;98.52;65647.91;5107597;28;20206;-70
2022/07/10 06:24:40;;;;;;;2.23;2.03;;;;;;;13.97;99.46;65644.97;5110512;28;20303;-71
2022/07/10 06:27:07;;;;;;;4.63;1.77;;;;;;;13.94;99.00;65642.19;5108925;28;20272;-73
2022/07/10 06:29:33;;;;;;;6.33;2.47;;;;;;;13.97;98.13;65642.91;5107763;28;20606;-72
2022/07/10 06:32:00;;;;;;;3.03;1.77;;;;;;;13.90;98.37;65637.19;5114814;28;20220;-73
2022/07/10 06:34:26;;;;;;;6.90;2.00;;;;;;;13.89;99.04;65636.63;5113826;27;20215;-72
2022/07/10 06:36:53;;;;;;;3.73;2.80;;;;;;;13.96;98.32;65649.63;5113099;28;20261;-75
2022/07/10 06:39:19;;;;;;;3.20;2.13;;;;;;;13.92;98.89;65639.41;5113117;28;20682;-75
2022/07/10 06:41:45;;;;;;;4.83;2.10;;;;;;;13.90;98.84;65637.19;5109035;28;20189;-74
2022/07/10 06:44:12;;;;;;;2.60;2.43;;;;;;;13.86;99.29;65630.13;5113912;28;20232;-73
2022/07/10 06:46:38;;;;;;;1.60;1.60;;;;;;;13.86;99.05;65630.69;5110318;28;20203;-73
2022/07/10 06:49:05;;;;;;;2.03;1.93;;;;;;;13.90;99.64;65645.56;5112404;28;20375;-74
2022/07/10 06:51:32;;;;;;;2.83;2.10;;;;;;;14.04;99.45;65650.69;5104462;28;20193;-74
2022/07/10 06:53:58;;;;;;;1.83;1.83;;;;;;;14.01;99.73;65647.38;5112822;28;20703;-74
2022/07/10 06:56:25;;;;;;;2.30;2.30;;;;;;;14.12;99.46;65661.63;5112947;28;20553;-74
2022/07/10 06:58:51;;;;;;;2.07;2.00;;;;;;;14.04;100.00;65650.13;5114570;28;20221;-75
2022/07/10 07:01:20;;;;;;;1.80;1.80;;;;;;;;;;5113596;28;20197;-74
2022/07/10 07:03:46;;;;;;;5.50;2.37;;;;;;;;;;5102953;28;20215;-75
2022/07/10 07:06:13;;;;;;;2.93;2.73;;;;;;;14.04;99.06;65650.69;5109519;28;20204;-75
2022/07/10 07:08:39;;;;;;;4.83;2.70;;;;;;;14.07;99.71;65656.06;5113728;28;20176;-74
2022/07/10 07:11:06;;;;;;;3.87;1.70;;;;;;;14.05;99.93;65659.63;5114681;28;20189;-75
2022/07/10 07:13:33;;;;;;;2.60;1.60;;;;;;;14.11;100.00;65657.91;5114149;28;20234;-74
2022/07/10 07:16:00;;;;;;;6.93;3.00;;;;;;;14.14;99.84;65673.75;5113200;28;20563;-75
2022/07/10 07:18:35;;;;;;;2.60;2.40;;;;;;;14.18;100.00;65667.75;5114163;28;20205;-75
2022/07/10 07:23:47;;;;;;;5.93;1.90;;;;;;;;;;5113860;28;20686;-75
2022/07/10 07:26:13;;;;;;;2.50;2.30;;;;;;;;;;5109600;28;20547;-73
2022/07/10 07:28:40;;;;;;;2.90;2.57;;;;;;;13.93;100.00;65637.91;5112766;28;20228;-74
2022/07/10 07:31:07;;;;;;;6.30;2.53;;;;;;;13.99;100.00;65652.41;5113823;28;20189;-75
2022/07/10 07:33:40;;;;;;;5.00;2.70;;;;;;;13.93;100.00;65641.09;5114037;28;20205;-75
2022/07/10 07:36:07;;;;;;;3.47;2.57;;;;;;;14.00;100.00;65648.28;5111304;28;20585;-74
2022/07/10 07:38:33;;;;;;;2.63;2.43;;;;;;;14.00;100.00;65646.25;5113671;28;20229;-74
2022/07/10 07:41:00;;;;;;;4.40;3.27;;;;;;;;;;5109665;28;20224;-74
2022/07/10 07:43:27;;;;;;;3.90;2.20;;;;;;;13.93;100.00;65638.47;5112117;28;20723;-74
2022/07/10 07:45:53;;;;;;;1.73;1.63;;;;;;;;;;5112828;28;20711;-74
2022/07/10 07:48:19;;;;;;;3.13;2.93;;;;;;;13.76;100.00;65627.38;5108350;28;20224;-74
2022/07/10 07:50:46;;;;;;;6.03;2.37;;;;;;;13.54;100.00;65597.72;5112671;28;20195;-75
2022/07/10 07:53:13;;;;;;;5.77;3.03;;;;;;;;;;5112857;28;20205;-73
2022/07/10 07:55:39;;;;;;;6.83;2.57;;;;;;;13.31;100.00;65583.16;5108275;28;20673;-73
2022/07/10 07:58:06;;;;;;;3.03;2.93;;;;;;;13.24;100.00;65562.91;5114169;28;20181;-75
2022/07/10 08:00:32;;;;;;;8.47;3.10;;;;;;;;;;5110178;28;20638;-74
2022/07/10 08:03:00;;;;;;;2.50;2.50;;;;;;;13.30;100.00;65572.16;5109967;28;20220;-74
2022/07/10 08:05:27;;;;;;;4.77;2.80;;;;;;;13.21;100.00;65559.56;5107156;28;20205;-74
2022/07/10 08:07:56;;;;;;;4.53;2.50;;;;;;;13.20;100.00;65558.44;5109618;28;20220;-74
2022/07/10 08:10:28;;;;;;;3.53;3.33;;;;;;;13.31;100.00;65570.13;5111026;28;20203;-74
2022/07/10 08:12:55;;;;;;;6.90;2.73;;;;;;;13.17;100.00;65560.31;5113639;28;20260;-75
2022/07/10 08:15:22;;;;;;;3.20;2.90;;;;;;;13.23;100.00;65564.41;5110056;28;20234;-74
2022/07/10 08:17:53;;;;;;;3.70;2.10;;;;;;;13.31;100.00;65570.66;5113017;28;20271;-75
2022/07/10 08:20:21;;;;;;;3.60;3.30;;;;;;;13.40;100.00;65580.66;5111664;28;20205;-74
2022/07/10 08:22:48;;;;;;;3.90;3.33;;;;;;;;;;5113500;28;20623;-75
2022/07/10 08:25:18;;;;;;;2.90;2.80;;;;;;;13.37;100.00;65569.53;5112904;28;20184;-74
2022/07/10 08:27:45;;;;;;;6.60;2.90;;;;;;;;;;5112353;28;20201;-75
2022/07/10 08:30:12;;;;;;;2.87;2.77;;;;;;;13.23;100.00;65564.41;5112394;28;20200;-74
2022/07/10 08:32:39;;;;;;;6.27;2.80;;;;;;;13.14;100.00;65556.97;5112272;28;20642;-74
2022/07/10 08:35:06;;;;;;;3.67;3.20;;;;;;;;;;5113225;28;20220;-75
2022/07/10 08:37:43;;;;;;;4.63;3.73;;;;;;;;;;5102756;28;20228;-74
2022/07/10 08:40:12;;;;;;;3.00;2.80;;;;;;;13.32;100.00;65579.59;5097310;28;20224;-74
2022/07/10 08:42:40;;;;;;;2.93;2.73;;;;;;;13.31;100.00;65575.34;5100517;28;20185;-74
2022/07/10 08:45:07;;;;;;;2.20;2.20;;;;;;;13.30;100.00;65569.00;5117187;28;20212;-75
2022/07/10 08:47:34;;;;;;;2.67;2.47;;;;;;;;;;5116930;28;20222;-75
2022/07/10 08:50:15;;;;;;;3.83;2.57;;;;;;;13.25;100.00;65564.00;5115248;28;20173;-75
2022/07/10 08:52:55;;;;;;;2.77;2.57;;;;;;;;;;5107559;28;20219;-75
2022/07/10 08:55:23;;;;;;;2.50;2.17;;;;;;;;;;5116977;28;20188;-75
2022/07/10 08:57:50;;;;;;;2.97;2.77;;;;;;;13.32;100.00;65571.22;5114962;28;20180;-75
2022/07/10 09:00:17;;;;;;;2.97;2.87;;;;;;;13.32;100.00;65579.03;5116841;28;20236;-75
2022/07/10 09:02:43;;;;;;;3.60;3.30;;;;;;;13.40;100.00;65580.13;5112015;28;20299;-74
2022/07/10 09:05:10;;;;;;;4.63;2.50;;;;;;;13.45;100.00;65588.28;5096363;28;20194;-75
2022/07/10 09:07:36;;;;;;;4.23;3.33;;;;;;;;;;5096163;28;20197;-75
2022/07/10 09:10:10;;;;;;;9.33;3.33;;;;;;;13.59;100.00;65603.84;5094852;28;20181;-75
2022/07/10 09:12:56;;;;;;;3.17;3.03;;;;;;;;;;5100157;28;20213;-74
2022/07/10 09:15:25;;;;;;;3.07;2.97;;;;;;;13.60;100.00;65604.94;5116902;28;20169;-75
2022/07/10 09:17:52;;;;;;;5.20;3.47;;;;;;;;;;5116332;28;20174;-75
2022/07/10 09:20:33;;;;;;;3.23;3.13;;;;;;;13.63;100.00;65605.09;5116390;28;20208;-75
2022/07/10 09:23:19;;;;;;;6.73;3.00;;;;;;;;;;5116370;28;20209;-75
2022/07/10 09:25:47;;;;;;;3.00;2.90;;;;;;;;;;5116459;28;20207;-74
2022/07/10 09:28:16;;;;;;;4.27;3.00;;;;;;;;;;5115355;28;20193;-75
2022/07/10 09:30:42;;;;;;;2.90;2.80;;;;;;;13.80;100.00;65626.06;5116086;28;20181;-75
2022/07/10 09:33:25;;;;;;;2.83;2.73;;;;;;;;;;5115167;28;20270;-74
2022/07/10 09:36:05;;;;;;;4.00;3.73;;;;;;;;;;5113958;28;20193;-74
2022/07/10 09:38:52;;;;;;;5.07;4.70;;;;;;;;;;5116286;28;20185;-75
2022/07/10 09:41:24;;;;;;;4.17;3.70;;;;;;;14.03;100.00;65649.03;5116073;28;20189;-75
2022/07/10 09:43:52;;;;;;;3.40;3.20;;;;;;;;;;5114804;28;20251;-75
2022/07/10 09:46:19;;;;;;;3.30;3.20;;;;;;;;;;5111418;28;20227;-74
2022/07/10 09:48:46;;;;;;;3.73;3.50;;;;;;;;;;5107068;28;20200;-75
2022/07/10 09:51:12;;;;;;;2.60;2.50;;;;;;;14.20;100.00;65667.91;5114826;28;20189;-75
2022/07/10 09:53:41;;;;;;;3.23;3.13;;;;;;;14.26;100.00;65679.81;5115797;28;20691;-75
2022/07/10 09:56:10;;;;;;;3.83;3.73;;;;;;;14.36;100.00;65687.78;5115540;28;20177;-75
2022/07/10 09:58:37;;;;;;;6.63;5.27;;;;;;;14.37;100.00;65686.28;5115541;28;20204;-75
2022/07/10 10:01:06;;;;;;;4.20;4.20;;;;;;;14.38;100.00;65687.38;5115420;28;20567;-75
2022/07/10 10:03:35;;;;;;;3.30;3.10;;;;;;;14.35;100.00;65684.03;5096775;28;20217;-75
2022/07/10 10:06:14;;;;;;;3.83;3.53;;;;;;;14.30;100.00;65681.66;5112306;28;20555;-74
2022/07/10 10:09:07;;;;;;;4.30;4.07;;;;;;;14.27;100.00;65675.69;5115679;28;20173;-75
2022/07/10 10:11:39;;;;;;;3.80;3.77;;;;;;;14.31;100.00;65679.59;5115521;28;20712;-75
2022/07/10 10:14:07;;;;;;;3.90;3.70;;;;;;;14.23;100.00;65673.88;5115205;28;20213;-75
2022/07/10 10:16:34;;;;;;;3.70;3.70;;;;;;;;;;5101153;28;20185;-76
2022/07/10 10:21:49;;;;;;;4.60;4.50;;;;;;;14.41;100.00;65693.31;5094604;28;20186;-75
2022/07/10 10:24:17;;;;;;;4.97;4.20;;;;;;;14.44;100.00;65699.28;5094555;28;20194;-75
2022/07/10 10:26:44;;;;;;;4.03;3.80;;;;;;;;;;5094615;28;20621;-75
2022/07/10 10:29:11;;;;;;;3.80;3.80;;;;;;;;;;5100952;28;20291;-75
2022/07/10 10:31:38;;;;;;;3.83;3.73;;;;;;;;;;5113721;28;20185;-75
2022/07/10 10:34:04;;;;;;;4.00;3.90;;;;;;;14.60;100.00;65711.31;5096462;28;20584;-75
2022/07/10 10:36:37;;;;;;;4.80;4.40;;;;;;;14.67;100.00;65721.16;5112162;28;20590;-75
2022/07/10 10:39:10;;;;;;;4.07;3.97;;;;;;;14.69;100.00;65721.31;5112482;28;20185;-74
2022/07/10 10:41:42;;;;;;;5.27;4.67;;;;;;;14.71;100.00;65723.00;5113992;28;20246;-75
2022/07/10 10:44:09;;;;;;;4.27;3.97;;;;;;;;;;5109854;28;20634;-75
2022/07/10 10:46:53;;;;;;;4.33;4.10;;;;;;;14.80;100.00;65736.19;5114533;28;20192;-76
2022/07/10 10:49:21;;;;;;;4.40;4.30;;;;;;;;;;5114395;28;20712;-75
2022/07/10 10:52:00;;;;;;;4.57;4.47;;;;;;;14.97;100.00;65754.53;5113913;28;20627;-75
2022/07/10 10:54:30;;;;;;;4.27;4.07;;;;;;;;;;5112082;28;20236;-75
2022/07/10 10:57:17;;;;;;;4.50;4.13;;;;;;;14.92;100.00;65737.97;5114590;28;20276;-75
2022/07/10 10:59:51;;;;;;;4.10;4.10;;;;;;;14.88;100.00;65744.53;5114219;28;20223;-75
2022/07/10 11:02:28;;;;;;;3.17;3.17;;;;;;;14.85;100.00;65738.56;5113582;28;20656;-75
2022/07/10 11:05:19;;;;;;;2.87;2.87;;;;;;;;;;5114457;28;20254;-75
2022/07/10 11:08:00;;;;;;;3.80;3.60;;;;;;;14.88;100.00;65736.13;5114439;28;20173;-75
2022/07/10 11:10:29;;;;;;;4.10;4.00;;;;;;;15.01;100.00;65759.00;5112222;28;20602;-74
2022/07/10 11:13:03;;;;;;;5.00;4.70;;;;;;;;;;5114048;28;20205;-75
2022/07/10 11:15:32;;;;;;;5.47;5.27;;;;;;;15.13;100.00;65777.00;5114375;28;20165;-75
2022/07/10 11:18:04;;;;;;;4.20;4.10;;;;;;;15.27;100.00;65786.81;5114265;28;20695;-75
2022/07/10 11:20:41;;;;;;;4.33;4.23;;;;;;;;;;5113103;28;20292;-75
2022/07/10 11:23:20;;;;;;;3.63;3.53;;;;;;;15.39;100.00;65732.16;5114162;28;20205;-75
2022/07/10 11:26:11;;;;;;;3.13;2.90;;;;;;;15.49;100.00;65808.13;5113207;28;20250;-75
2022/07/10 11:28:37;;;;;;;2.13;2.13;;;;;;;;;;5114209;28;20235;-74
2022/07/10 11:31:04;;;;;;;1.87;1.87;;;;;;;15.85;100.00;65850.28;5113021;28;20276;-73
2022/07/10 11:33:39;;;;;;;1.93;1.93;;;;;;;15.72;100.00;65835.81;5112109;28;20217;-74
2022/07/10 11:36:12;;;;;;;1.47;1.47;;;;;;;15.74;100.00;65840.66;5113125;28;20242;-74
2022/07/10 11:38:41;;;;;;;1.93;1.93;;;;;;;15.62;100.00;65817.38;5096233;28;20193;-73
2022/07/10 11:41:18;;;;;;;1.50;1.50;;;;;;;;;;5106793;28;20687;-74
2022/07/10 11:43:56;;;;;;;1.87;1.87;;;;;;;15.24;100.00;65786.66;5113689;28;20573;-74
2022/07/10 11:46:24;;;;;;;1.90;1.90;;;;;;;15.21;100.00;65777.50;5111723;28;20193;-74
2022/07/10 11:48:56;;;;;;;1.63;1.63;;;;;;;;;;5111891;28;20242;-74
2022/07/10 11:51:27;;;;;;;2.07;2.07;;;;;;;;;;5112815;28;20189;-74
2022/07/10 11:54:04;;;;;;;2.50;2.40;;;;;;;;;;5113769;28;20258;-74
2022/07/10 11:56:34;;;;;;;1.90;1.90;;;;;;;;;;5113661;28;20226;-74
2022/07/10 11:59:01;;;;;;;1.77;1.77;;;;;;;;;;5114174;28;20178;-75
2022/07/10 12:01:29;;;;;;;1.93;1.93;;;;;;;;;;5110917;28;20205;-74
2022/07/10 12:04:01;;;;;;;3.03;2.13;;;;;;;15.34;100.00;65787.31;5109797;28;20213;-74
2022/07/10 12:06:28;;;;;;;3.03;3.03;;;;;;;;;;5111644;28;20659;-73
2022/07/10 12:08:55;;;;;;;2.87;2.77;;;;;;;;;;5110677;28;20643;-74
2022/07/10 12:11:22;;;;;;;3.03;3.03;;;;;;;15.64;100.00;65828.03;5114432;28;20220;-75
2022/07/10 12:13:51;;;;;;;3.40;3.20;;;;;;;15.73;100.00;65837.50;5116646;28;20217;-74
2022/07/10 12:16:18;;;;;;;3.13;3.03;;;;;;;15.81;100.00;65849.03;5115663;28;20246;-73
2022/07/10 12:18:45;;;;;;;3.20;3.20;;;;;;;15.90;100.00;65853.25;5114980;28;20208;-74
2022/07/10 12:21:13;;;;;;;2.80;2.70;;;;;;;;;;5116494;28;20690;-74
2022/07/10 12:23:41;;;;;;;3.30;3.20;;;;;;;16.02;100.00;65858.75;5113748;28;20667;-73